aviador You're here:

KLUX Decoded Metar

LAURENS CTY in SC, USA
Report Time2018-06-24 09:15:00
UTC Time2018-06-24 09:25:03
Flight Rules vfr VFR
Wind230° at 05 kt
W.Decomp.*RWY 26: 4.5 kt HW 2.2 kt LCW
W.Rank230° ranks 1
Current wind is below 230° avg. (6.3)
Visibility9999 m
Phenomena:N/A
Clouds:N/A
Expected CloudBase > 800 ft AGL from Temp-Dew spread
CeilingNone
Temp22°C (ISA +8)
Dew Point20°C (88% RH)
QNH1014 hPa
Density Alt1,955 ft
Elevation699 ft
Report Wrong Elevation
Raw Report
METAR KLUX 240915Z AUTO 23005KT 10SM CLR 22/20 A2995 RMK AO2=

Extra information for KLUX:More info

Metar Taf Metar & Taf Last 4 Metars F.Rules Stats Wind Profile Meteogram Temp Stats Airport Information Weather charts Add Link Nearby VenuesMetar ALERT Operation Metar Decoded Social comments

AIRNAV info for KLUX